sensor_id;sensor_type;location;lat;lon;timestamp;P1;durP1;ratioP1;P2;durP2;ratioP2
16839;SDS011;8536;52.150;11.572;2023-02-04T00:02:24;1.60;;;0.53;;
16839;SDS011;8536;52.150;11.572;2023-02-04T00:04:51;1.80;;;0.60;;
16839;SDS011;8536;52.150;11.572;2023-02-04T00:07:19;1.90;;;0.70;;
16839;SDS011;8536;52.150;11.572;2023-02-04T00:09:45;3.10;;;0.67;;
16839;SDS011;8536;52.150;11.572;2023-02-04T00:12:12;2.73;;;0.60;;
16839;SDS011;8536;52.150;11.572;2023-02-04T00:14:39;2.67;;;0.60;;
16839;SDS011;8536;52.150;11.572;2023-02-04T00:17:05;1.83;;;0.50;;
16839;SDS011;8536;52.150;11.572;2023-02-04T00:19:38;2.30;;;0.60;;
16839;SDS011;8536;52.150;11.572;2023-02-04T00:22:05;0.97;;;0.50;;
16839;SDS011;8536;52.150;11.572;2023-02-04T00:24:33;0.47;;;0.40;;
16839;SDS011;8536;52.150;11.572;2023-02-04T00:27:01;0.50;;;0.50;;
16839;SDS011;8536;52.150;11.572;2023-02-04T00:29:27;0.67;;;0.50;;
16839;SDS011;8536;52.150;11.572;2023-02-04T00:31:54;1.70;;;0.60;;
16839;SDS011;8536;52.150;11.572;2023-02-04T00:34:21;0.23;;;0.23;;
16839;SDS011;8536;52.150;11.572;2023-02-04T00:36:48;1.13;;;0.40;;
16839;SDS011;8536;52.150;11.572;2023-02-04T00:39:14;1.00;;;0.63;;
16839;SDS011;8536;52.150;11.572;2023-02-04T00:41:41;0.60;;;0.40;;
16839;SDS011;8536;52.150;11.572;2023-02-04T00:44:07;1.50;;;0.70;;
16839;SDS011;8536;52.150;11.572;2023-02-04T00:46:34;1.70;;;0.70;;
16839;SDS011;8536;52.150;11.572;2023-02-04T00:49:00;0.80;;;0.60;;
16839;SDS011;8536;52.150;11.572;2023-02-04T00:51:27;2.80;;;0.40;;
16839;SDS011;8536;52.150;11.572;2023-02-04T00:53:53;1.47;;;0.50;;
16839;SDS011;8536;52.150;11.572;2023-02-04T00:56:20;0.70;;;0.40;;
16839;SDS011;8536;52.150;11.572;2023-02-04T00:58:46;1.13;;;0.53;;
16839;SDS011;8536;52.150;11.572;2023-02-04T01:01:13;2.07;;;0.70;;
16839;SDS011;8536;52.150;11.572;2023-02-04T01:03:39;2.50;;;0.53;;
16839;SDS011;8536;52.150;11.572;2023-02-04T01:06:06;0.87;;;0.50;;
16839;SDS011;8536;52.150;11.572;2023-02-04T01:08:32;2.77;;;0.60;;
16839;SDS011;8536;52.150;11.572;2023-02-04T01:10:59;1.50;;;0.53;;
16839;SDS011;8536;52.150;11.572;2023-02-04T01:13:25;1.03;;;0.50;;
16839;SDS011;8536;52.150;11.572;2023-02-04T01:15:52;1.50;;;0.57;;
16839;SDS011;8536;52.150;11.572;2023-02-04T01:18:18;2.67;;;0.87;;
16839;SDS011;8536;52.150;11.572;2023-02-04T01:20:45;1.67;;;0.67;;
16839;SDS011;8536;52.150;11.572;2023-02-04T01:23:11;2.03;;;1.00;;
16839;SDS011;8536;52.150;11.572;2023-02-04T01:25:38;2.67;;;0.80;;
16839;SDS011;8536;52.150;11.572;2023-02-04T01:28:04;1.73;;;0.77;;
16839;SDS011;8536;52.150;11.572;2023-02-04T01:30:31;0.80;;;0.70;;
16839;SDS011;8536;52.150;11.572;2023-02-04T01:32:58;3.27;;;1.00;;
16839;SDS011;8536;52.150;11.572;2023-02-04T01:35:24;1.13;;;0.80;;
16839;SDS011;8536;52.150;11.572;2023-02-04T01:37:51;1.67;;;1.07;;
16839;SDS011;8536;52.150;11.572;2023-02-04T01:40:18;3.17;;;0.90;;
16839;SDS011;8536;52.150;11.572;2023-02-04T01:42:44;1.53;;;0.73;;
16839;SDS011;8536;52.150;11.572;2023-02-04T01:45:11;1.93;;;0.80;;
16839;SDS011;8536;52.150;11.572;2023-02-04T01:47:37;0.93;;;0.90;;
16839;SDS011;8536;52.150;11.572;2023-02-04T01:50:04;1.57;;;1.00;;
16839;SDS011;8536;52.150;11.572;2023-02-04T01:52:34;0.80;;;0.70;;
16839;SDS011;8536;52.150;11.572;2023-02-04T01:55:02;1.87;;;0.90;;
16839;SDS011;8536;52.150;11.572;2023-02-04T01:57:31;1.47;;;0.93;;
16839;SDS011;8536;52.150;11.572;2023-02-04T01:59:58;1.67;;;1.10;;
16839;SDS011;8536;52.150;11.572;2023-02-04T02:02:35;3.03;;;1.17;;
16839;SDS011;8536;52.150;11.572;2023-02-04T02:05:05;1.30;;;1.13;;
16839;SDS011;8536;52.150;11.572;2023-02-04T02:07:32;2.40;;;1.27;;
16839;SDS011;8536;52.150;11.572;2023-02-04T02:09:59;1.30;;;1.03;;
16839;SDS011;8536;52.150;11.572;2023-02-04T02:12:25;1.23;;;1.00;;
16839;SDS011;8536;52.150;11.572;2023-02-04T02:14:52;1.87;;;0.97;;
16839;SDS011;8536;52.150;11.572;2023-02-04T02:17:19;1.70;;;0.90;;
16839;SDS011;8536;52.150;11.572;2023-02-04T02:19:45;1.50;;;1.00;;
16839;SDS011;8536;52.150;11.572;2023-02-04T02:24:52;2.93;;;1.60;;
16839;SDS011;8536;52.150;11.572;2023-02-04T02:27:18;1.33;;;1.20;;
16839;SDS011;8536;52.150;11.572;2023-02-04T02:29:45;2.40;;;1.13;;
16839;SDS011;8536;52.150;11.572;2023-02-04T02:32:12;1.60;;;1.13;;
16839;SDS011;8536;52.150;11.572;2023-02-04T02:34:40;3.37;;;1.17;;
16839;SDS011;8536;52.150;11.572;2023-02-04T02:37:07;2.50;;;1.20;;
16839;SDS011;8536;52.150;11.572;2023-02-04T02:39:37;2.07;;;1.10;;
16839;SDS011;8536;52.150;11.572;2023-02-04T02:42:05;2.33;;;1.20;;
16839;SDS011;8536;52.150;11.572;2023-02-04T02:44:31;2.07;;;1.00;;
16839;SDS011;8536;52.150;11.572;2023-02-04T02:46:59;1.70;;;1.00;;
16839;SDS011;8536;52.150;11.572;2023-02-04T02:49:25;1.37;;;1.03;;
16839;SDS011;8536;52.150;11.572;2023-02-04T02:51:54;1.83;;;1.20;;
16839;SDS011;8536;52.150;11.572;2023-02-04T02:54:25;1.23;;;1.00;;
16839;SDS011;8536;52.150;11.572;2023-02-04T02:56:54;2.20;;;1.10;;
16839;SDS011;8536;52.150;11.572;2023-02-04T02:59:20;2.20;;;1.17;;
16839;SDS011;8536;52.150;11.572;2023-02-04T03:01:47;1.83;;;1.13;;
16839;SDS011;8536;52.150;11.572;2023-02-04T03:04:17;1.73;;;1.00;;
16839;SDS011;8536;52.150;11.572;2023-02-04T03:06:44;2.27;;;1.17;;
16839;SDS011;8536;52.150;11.572;2023-02-04T03:09:11;1.63;;;1.00;;
16839;SDS011;8536;52.150;11.572;2023-02-04T03:11:37;1.60;;;1.10;;
16839;SDS011;8536;52.150;11.572;2023-02-04T03:14:04;1.60;;;1.07;;
16839;SDS011;8536;52.150;11.572;2023-02-04T03:16:31;1.77;;;1.30;;
16839;SDS011;8536;52.150;11.572;2023-02-04T03:18:58;1.43;;;1.00;;
16839;SDS011;8536;52.150;11.572;2023-02-04T03:21:25;2.83;;;1.23;;
16839;SDS011;8536;52.150;11.572;2023-02-04T03:23:52;2.20;;;1.23;;
16839;SDS011;8536;52.150;11.572;2023-02-04T03:26:22;2.27;;;1.30;;
16839;SDS011;8536;52.150;11.572;2023-02-04T03:28:49;2.57;;;1.47;;
16839;SDS011;8536;52.150;11.572;2023-02-04T03:31:16;1.70;;;1.17;;
16839;SDS011;8536;52.150;11.572;2023-02-04T03:33:42;1.37;;;1.20;;
16839;SDS011;8536;52.150;11.572;2023-02-04T03:36:09;1.63;;;1.30;;
16839;SDS011;8536;52.150;11.572;2023-02-04T03:38:35;1.60;;;1.10;;
16839;SDS011;8536;52.150;11.572;2023-02-04T03:41:02;1.90;;;1.30;;
16839;SDS011;8536;52.150;11.572;2023-02-04T03:43:28;1.40;;;1.13;;
16839;SDS011;8536;52.150;11.572;2023-02-04T03:45:57;2.60;;;1.30;;
16839;SDS011;8536;52.150;11.572;2023-02-04T03:48:24;2.33;;;1.30;;
16839;SDS011;8536;52.150;11.572;2023-02-04T03:50:50;3.13;;;1.50;;
16839;SDS011;8536;52.150;11.572;2023-02-04T03:53:17;3.53;;;1.43;;
16839;SDS011;8536;52.150;11.572;2023-02-04T03:55:43;2.90;;;1.30;;
16839;SDS011;8536;52.150;11.572;2023-02-04T03:58:10;3.40;;;1.73;;
16839;SDS011;8536;52.150;11.572;2023-02-04T04:00:36;3.47;;;1.70;;
16839;SDS011;8536;52.150;11.572;2023-02-04T04:03:03;2.83;;;1.10;;
16839;SDS011;8536;52.150;11.572;2023-02-04T04:05:29;3.00;;;1.43;;
16839;SDS011;8536;52.150;11.572;2023-02-04T04:07:56;2.00;;;1.00;;
16839;SDS011;8536;52.150;11.572;2023-02-04T04:10:23;2.23;;;1.20;;
16839;SDS011;8536;52.150;11.572;2023-02-04T04:12:49;2.53;;;1.10;;
16839;SDS011;8536;52.150;11.572;2023-02-04T04:15:16;1.40;;;1.00;;
16839;SDS011;8536;52.150;11.572;2023-02-04T04:17:42;1.23;;;0.90;;
16839;SDS011;8536;52.150;11.572;2023-02-04T04:20:09;2.10;;;1.10;;
16839;SDS011;8536;52.150;11.572;2023-02-04T04:22:36;1.67;;;1.00;;
16839;SDS011;8536;52.150;11.572;2023-02-04T04:25:02;3.33;;;1.00;;
16839;SDS011;8536;52.150;11.572;2023-02-04T04:27:29;3.20;;;1.20;;
16839;SDS011;8536;52.150;11.572;2023-02-04T04:29:56;2.00;;;1.33;;
16839;SDS011;8536;52.150;11.572;2023-02-04T04:32:23;2.87;;;1.20;;
16839;SDS011;8536;52.150;11.572;2023-02-04T04:34:49;2.43;;;1.43;;
16839;SDS011;8536;52.150;11.572;2023-02-04T04:37:16;3.50;;;1.20;;
16839;SDS011;8536;52.150;11.572;2023-02-04T04:39:42;4.40;;;1.60;;
16839;SDS011;8536;52.150;11.572;2023-02-04T04:42:09;3.60;;;1.50;;
16839;SDS011;8536;52.150;11.572;2023-02-04T04:44:35;3.00;;;1.23;;
16839;SDS011;8536;52.150;11.572;2023-02-04T04:47:02;2.80;;;1.40;;
16839;SDS011;8536;52.150;11.572;2023-02-04T04:49:28;2.80;;;1.30;;
16839;SDS011;8536;52.150;11.572;2023-02-04T04:51:55;2.90;;;1.20;;
16839;SDS011;8536;52.150;11.572;2023-02-04T04:54:21;1.60;;;1.20;;
16839;SDS011;8536;52.150;11.572;2023-02-04T04:56:48;2.17;;;1.50;;
16839;SDS011;8536;52.150;11.572;2023-02-04T04:59:14;2.77;;;1.33;;
16839;SDS011;8536;52.150;11.572;2023-02-04T05:01:41;1.80;;;1.30;;
16839;SDS011;8536;52.150;11.572;2023-02-04T05:04:07;1.97;;;1.23;;
16839;SDS011;8536;52.150;11.572;2023-02-04T05:06:33;1.80;;;1.37;;
16839;SDS011;8536;52.150;11.572;2023-02-04T05:09:00;3.00;;;1.40;;
16839;SDS011;8536;52.150;11.572;2023-02-04T05:11:26;3.23;;;1.60;;
16839;SDS011;8536;52.150;11.572;2023-02-04T05:13:53;2.30;;;1.70;;
16839;SDS011;8536;52.150;11.572;2023-02-04T05:16:19;2.73;;;1.40;;
16839;SDS011;8536;52.150;11.572;2023-02-04T05:18:46;4.43;;;1.63;;
16839;SDS011;8536;52.150;11.572;2023-02-04T05:21:13;1.50;;;1.10;;
16839;SDS011;8536;52.150;11.572;2023-02-04T05:23:39;3.60;;;1.10;;
16839;SDS011;8536;52.150;11.572;2023-02-04T05:26:06;2.20;;;1.57;;
16839;SDS011;8536;52.150;11.572;2023-02-04T05:28:32;2.60;;;1.50;;
16839;SDS011;8536;52.150;11.572;2023-02-04T05:30:59;3.43;;;1.23;;
16839;SDS011;8536;52.150;11.572;2023-02-04T05:33:25;2.87;;;1.40;;
16839;SDS011;8536;52.150;11.572;2023-02-04T05:35:52;4.63;;;1.20;;
16839;SDS011;8536;52.150;11.572;2023-02-04T05:38:18;2.53;;;1.20;;
16839;SDS011;8536;52.150;11.572;2023-02-04T05:40:45;1.83;;;1.43;;
16839;SDS011;8536;52.150;11.572;2023-02-04T05:43:11;2.33;;;1.20;;
16839;SDS011;8536;52.150;11.572;2023-02-04T05:45:38;1.60;;;1.23;;
16839;SDS011;8536;52.150;11.572;2023-02-04T05:48:05;1.73;;;1.63;;
16839;SDS011;8536;52.150;11.572;2023-02-04T05:50:31;2.27;;;1.10;;
16839;SDS011;8536;52.150;11.572;2023-02-04T05:52:58;2.33;;;1.37;;
16839;SDS011;8536;52.150;11.572;2023-02-04T05:55:25;2.33;;;1.33;;
16839;SDS011;8536;52.150;11.572;2023-02-04T05:57:51;2.30;;;1.20;;
16839;SDS011;8536;52.150;11.572;2023-02-04T06:00:18;1.67;;;1.40;;
16839;SDS011;8536;52.150;11.572;2023-02-04T06:02:44;1.27;;;1.17;;
16839;SDS011;8536;52.150;11.572;2023-02-04T06:05:11;2.57;;;1.60;;
16839;SDS011;8536;52.150;11.572;2023-02-04T06:07:37;3.23;;;1.97;;
16839;SDS011;8536;52.150;11.572;2023-02-04T06:10:04;3.47;;;1.90;;
16839;SDS011;8536;52.150;11.572;2023-02-04T06:12:30;2.63;;;1.43;;
16839;SDS011;8536;52.150;11.572;2023-02-04T06:14:57;1.73;;;1.60;;
16839;SDS011;8536;52.150;11.572;2023-02-04T06:17:23;2.30;;;1.70;;
16839;SDS011;8536;52.150;11.572;2023-02-04T06:19:50;4.67;;;2.00;;
16839;SDS011;8536;52.150;11.572;2023-02-04T06:22:16;2.70;;;1.40;;
16839;SDS011;8536;52.150;11.572;2023-02-04T06:24:43;3.37;;;1.63;;
16839;SDS011;8536;52.150;11.572;2023-02-04T06:27:12;2.93;;;1.70;;
16839;SDS011;8536;52.150;11.572;2023-02-04T06:29:39;3.20;;;1.50;;
16839;SDS011;8536;52.150;11.572;2023-02-04T06:32:05;3.93;;;1.80;;
16839;SDS011;8536;52.150;11.572;2023-02-04T06:34:32;4.07;;;1.63;;
16839;SDS011;8536;52.150;11.572;2023-02-04T06:36:58;2.87;;;1.80;;
16839;SDS011;8536;52.150;11.572;2023-02-04T06:39:25;3.63;;;1.73;;
16839;SDS011;8536;52.150;11.572;2023-02-04T06:41:51;3.37;;;1.90;;
16839;SDS011;8536;52.150;11.572;2023-02-04T06:44:18;4.17;;;1.77;;
16839;SDS011;8536;52.150;11.572;2023-02-04T06:46:44;4.40;;;2.30;;
16839;SDS011;8536;52.150;11.572;2023-02-04T06:49:10;4.10;;;2.10;;
16839;SDS011;8536;52.150;11.572;2023-02-04T06:51:37;4.43;;;1.83;;
16839;SDS011;8536;52.150;11.572;2023-02-04T06:54:03;5.23;;;1.83;;
16839;SDS011;8536;52.150;11.572;2023-02-04T06:56:30;4.23;;;1.60;;
16839;SDS011;8536;52.150;11.572;2023-02-04T06:58:56;1.97;;;1.50;;
16839;SDS011;8536;52.150;11.572;2023-02-04T07:01:23;2.90;;;1.70;;
16839;SDS011;8536;52.150;11.572;2023-02-04T07:03:50;2.97;;;1.57;;
16839;SDS011;8536;52.150;11.572;2023-02-04T07:06:16;2.40;;;1.77;;
16839;SDS011;8536;52.150;11.572;2023-02-04T07:08:43;2.70;;;1.67;;
16839;SDS011;8536;52.150;11.572;2023-02-04T07:11:09;3.53;;;1.70;;
16839;SDS011;8536;52.150;11.572;2023-02-04T07:13:36;2.37;;;1.63;;
16839;SDS011;8536;52.150;11.572;2023-02-04T07:16:02;2.33;;;1.87;;
16839;SDS011;8536;52.150;11.572;2023-02-04T07:18:29;6.03;;;2.80;;
16839;SDS011;8536;52.150;11.572;2023-02-04T07:20:56;4.37;;;2.67;;
16839;SDS011;8536;52.150;11.572;2023-02-04T07:23:22;3.67;;;2.20;;
16839;SDS011;8536;52.150;11.572;2023-02-04T07:25:50;4.17;;;2.40;;
16839;SDS011;8536;52.150;11.572;2023-02-04T07:28:21;2.80;;;1.70;;
16839;SDS011;8536;52.150;11.572;2023-02-04T07:30:48;3.67;;;1.80;;
16839;SDS011;8536;52.150;11.572;2023-02-04T07:33:15;3.23;;;2.20;;
16839;SDS011;8536;52.150;11.572;2023-02-04T07:35:41;5.30;;;2.33;;
16839;SDS011;8536;52.150;11.572;2023-02-04T07:38:08;3.73;;;2.07;;
16839;SDS011;8536;52.150;11.572;2023-02-04T07:40:34;3.27;;;2.10;;
16839;SDS011;8536;52.150;11.572;2023-02-04T07:43:01;3.23;;;1.83;;
16839;SDS011;8536;52.150;11.572;2023-02-04T07:45:27;2.60;;;1.57;;
16839;SDS011;8536;52.150;11.572;2023-02-04T07:47:54;3.27;;;1.70;;
16839;SDS011;8536;52.150;11.572;2023-02-04T07:50:20;3.53;;;1.73;;
16839;SDS011;8536;52.150;11.572;2023-02-04T07:52:47;2.77;;;1.17;;
16839;SDS011;8536;52.150;11.572;2023-02-04T07:55:13;2.67;;;1.37;;
16839;SDS011;8536;52.150;11.572;2023-02-04T07:57:40;3.47;;;1.63;;
16839;SDS011;8536;52.150;11.572;2023-02-04T08:00:07;1.87;;;1.40;;
16839;SDS011;8536;52.150;11.572;2023-02-04T08:02:34;2.90;;;1.70;;
16839;SDS011;8536;52.150;11.572;2023-02-04T08:05:01;3.60;;;1.70;;
16839;SDS011;8536;52.150;11.572;2023-02-04T08:07:28;3.40;;;1.67;;
16839;SDS011;8536;52.150;11.572;2023-02-04T08:09:54;2.13;;;1.63;;
16839;SDS011;8536;52.150;11.572;2023-02-04T08:12:21;2.33;;;1.60;;
16839;SDS011;8536;52.150;11.572;2023-02-04T08:14:47;1.83;;;1.50;;
16839;SDS011;8536;52.150;11.572;2023-02-04T08:17:14;3.50;;;1.90;;
16839;SDS011;8536;52.150;11.572;2023-02-04T08:19:40;2.67;;;1.50;;
16839;SDS011;8536;52.150;11.572;2023-02-04T08:22:07;2.47;;;1.50;;
16839;SDS011;8536;52.150;11.572;2023-02-04T08:24:34;2.17;;;1.30;;
16839;SDS011;8536;52.150;11.572;2023-02-04T08:27:01;2.63;;;1.50;;
16839;SDS011;8536;52.150;11.572;2023-02-04T08:29:27;1.40;;;1.30;;
16839;SDS011;8536;52.150;11.572;2023-02-04T08:31:54;2.07;;;1.50;;
16839;SDS011;8536;52.150;11.572;2023-02-04T08:34:20;5.90;;;1.60;;
16839;SDS011;8536;52.150;11.572;2023-02-04T08:36:47;2.33;;;1.27;;
16839;SDS011;8536;52.150;11.572;2023-02-04T08:39:13;3.40;;;1.60;;
16839;SDS011;8536;52.150;11.572;2023-02-04T08:41:40;3.47;;;1.30;;
16839;SDS011;8536;52.150;11.572;2023-02-04T08:44:06;3.10;;;1.70;;
16839;SDS011;8536;52.150;11.572;2023-02-04T08:46:33;2.50;;;1.20;;
16839;SDS011;8536;52.150;11.572;2023-02-04T08:48:59;2.37;;;1.30;;
16839;SDS011;8536;52.150;11.572;2023-02-04T08:51:26;4.40;;;1.77;;
16839;SDS011;8536;52.150;11.572;2023-02-04T08:53:53;3.80;;;2.67;;
16839;SDS011;8536;52.150;11.572;2023-02-04T08:56:19;2.83;;;1.90;;
16839;SDS011;8536;52.150;11.572;2023-02-04T08:58:46;4.60;;;1.73;;
16839;SDS011;8536;52.150;11.572;2023-02-04T09:01:13;3.40;;;1.87;;
16839;SDS011;8536;52.150;11.572;2023-02-04T09:03:40;3.43;;;1.40;;
16839;SDS011;8536;52.150;11.572;2023-02-04T09:06:07;1.27;;;1.10;;
16839;SDS011;8536;52.150;11.572;2023-02-04T09:08:33;1.47;;;1.10;;
16839;SDS011;8536;52.150;11.572;2023-02-04T09:11:00;2.40;;;1.00;;
16839;SDS011;8536;52.150;11.572;2023-02-04T09:13:27;2.53;;;0.97;;
16839;SDS011;8536;52.150;11.572;2023-02-04T09:15:53;1.87;;;0.90;;
16839;SDS011;8536;52.150;11.572;2023-02-04T09:18:20;2.77;;;1.23;;
16839;SDS011;8536;52.150;11.572;2023-02-04T09:20:48;2.00;;;1.20;;
16839;SDS011;8536;52.150;11.572;2023-02-04T09:23:14;2.50;;;0.93;;
16839;SDS011;8536;52.150;11.572;2023-02-04T09:25:41;5.40;;;1.00;;
16839;SDS011;8536;52.150;11.572;2023-02-04T09:28:09;3.93;;;1.00;;
16839;SDS011;8536;52.150;11.572;2023-02-04T09:30:37;3.57;;;0.90;;
16839;SDS011;8536;52.150;11.572;2023-02-04T09:33:04;1.63;;;0.90;;
16839;SDS011;8536;52.150;11.572;2023-02-04T09:35:31;2.23;;;0.90;;
16839;SDS011;8536;52.150;11.572;2023-02-04T09:37:57;2.20;;;0.80;;
16839;SDS011;8536;52.150;11.572;2023-02-04T09:40:25;2.37;;;1.10;;
16839;SDS011;8536;52.150;11.572;2023-02-04T09:42:53;1.67;;;1.13;;
16839;SDS011;8536;52.150;11.572;2023-02-04T09:45:29;2.43;;;1.00;;
16839;SDS011;8536;52.150;11.572;2023-02-04T09:48:00;3.23;;;1.13;;
16839;SDS011;8536;52.150;11.572;2023-02-04T09:50:28;1.03;;;0.80;;
16839;SDS011;8536;52.150;11.572;2023-02-04T09:52:59;1.47;;;0.80;;
16839;SDS011;8536;52.150;11.572;2023-02-04T09:55:28;3.63;;;1.00;;
16839;SDS011;8536;52.150;11.572;2023-02-04T09:57:56;1.87;;;0.90;;
16839;SDS011;8536;52.150;11.572;2023-02-04T10:00:24;2.70;;;1.17;;
16839;SDS011;8536;52.150;11.572;2023-02-04T10:02:53;1.13;;;0.60;;
16839;SDS011;8536;52.150;11.572;2023-02-04T10:05:24;2.10;;;1.00;;
16839;SDS011;8536;52.150;11.572;2023-02-04T10:07:53;2.60;;;0.73;;
16839;SDS011;8536;52.150;11.572;2023-02-04T10:10:21;2.10;;;0.70;;
16839;SDS011;8536;52.150;11.572;2023-02-04T10:12:51;1.10;;;1.00;;
16839;SDS011;8536;52.150;11.572;2023-02-04T10:15:19;3.80;;;0.87;;
16839;SDS011;8536;52.150;11.572;2023-02-04T10:17:46;4.10;;;1.10;;
16839;SDS011;8536;52.150;11.572;2023-02-04T10:20:14;2.77;;;1.13;;
16839;SDS011;8536;52.150;11.572;2023-02-04T10:22:42;1.73;;;0.93;;
16839;SDS011;8536;52.150;11.572;2023-02-04T10:25:13;2.30;;;0.80;;
16839;SDS011;8536;52.150;11.572;2023-02-04T10:27:50;2.10;;;0.90;;
16839;SDS011;8536;52.150;11.572;2023-02-04T10:30:19;2.07;;;0.93;;
16839;SDS011;8536;52.150;11.572;2023-02-04T10:32:47;3.50;;;1.07;;
16839;SDS011;8536;52.150;11.572;2023-02-04T10:35:15;2.43;;;0.97;;
16839;SDS011;8536;52.150;11.572;2023-02-04T10:37:42;1.83;;;0.90;;
16839;SDS011;8536;52.150;11.572;2023-02-04T10:40:24;1.40;;;0.83;;
16839;SDS011;8536;52.150;11.572;2023-02-04T10:43:14;3.97;;;1.40;;
16839;SDS011;8536;52.150;11.572;2023-02-04T10:45:43;0.60;;;0.60;;
16839;SDS011;8536;52.150;11.572;2023-02-04T10:48:16;5.90;;;1.43;;
16839;SDS011;8536;52.150;11.572;2023-02-04T10:50:44;2.13;;;0.90;;
16839;SDS011;8536;52.150;11.572;2023-02-04T10:53:16;3.00;;;1.43;;
16839;SDS011;8536;52.150;11.572;2023-02-04T10:56:02;4.83;;;1.33;;
16839;SDS011;8536;52.150;11.572;2023-02-04T10:58:29;4.20;;;1.40;;
16839;SDS011;8536;52.150;11.572;2023-02-04T11:00:57;3.27;;;1.23;;
16839;SDS011;8536;52.150;11.572;2023-02-04T11:03:24;3.10;;;1.20;;
16839;SDS011;8536;52.150;11.572;2023-02-04T11:05:54;3.00;;;1.20;;
16839;SDS011;8536;52.150;11.572;2023-02-04T11:08:30;1.77;;;1.03;;
16839;SDS011;8536;52.150;11.572;2023-02-04T11:10:59;2.63;;;1.23;;
16839;SDS011;8536;52.150;11.572;2023-02-04T11:16:08;2.80;;;1.17;;
16839;SDS011;8536;52.150;11.572;2023-02-04T11:18:54;2.03;;;1.10;;
16839;SDS011;8536;52.150;11.572;2023-02-04T11:26:43;1.90;;;1.20;;
16839;SDS011;8536;52.150;11.572;2023-02-04T11:31:56;3.10;;;1.00;;
16839;SDS011;8536;52.150;11.572;2023-02-04T11:34:27;2.13;;;1.00;;
16839;SDS011;8536;52.150;11.572;2023-02-04T11:39:22;2.10;;;1.17;;
16839;SDS011;8536;52.150;11.572;2023-02-04T11:42:14;2.80;;;0.90;;
16839;SDS011;8536;52.150;11.572;2023-02-04T11:44:52;1.80;;;0.93;;
16839;SDS011;8536;52.150;11.572;2023-02-04T11:47:21;2.73;;;0.90;;
16839;SDS011;8536;52.150;11.572;2023-02-04T11:49:57;4.80;;;1.40;;
16839;SDS011;8536;52.150;11.572;2023-02-04T11:52:24;2.57;;;1.43;;
16839;SDS011;8536;52.150;11.572;2023-02-04T11:54:52;7.17;;;2.00;;
16839;SDS011;8536;52.150;11.572;2023-02-04T11:57:25;4.37;;;1.37;;
16839;SDS011;8536;52.150;11.572;2023-02-04T11:59:52;3.67;;;1.37;;
16839;SDS011;8536;52.150;11.572;2023-02-04T12:02:21;1.97;;;1.00;;
16839;SDS011;8536;52.150;11.572;2023-02-04T12:04:52;3.03;;;0.97;;
16839;SDS011;8536;52.150;11.572;2023-02-04T12:07:26;1.63;;;0.67;;
16839;SDS011;8536;52.150;11.572;2023-02-04T12:09:54;2.13;;;0.87;;
16839;SDS011;8536;52.150;11.572;2023-02-04T12:12:25;2.83;;;0.83;;
16839;SDS011;8536;52.150;11.572;2023-02-04T12:14:56;2.07;;;0.60;;
16839;SDS011;8536;52.150;11.572;2023-02-04T12:17:24;1.03;;;0.73;;
16839;SDS011;8536;52.150;11.572;2023-02-04T12:19:50;2.87;;;0.80;;
16839;SDS011;8536;52.150;11.572;2023-02-04T12:22:17;2.40;;;0.70;;
16839;SDS011;8536;52.150;11.572;2023-02-04T12:24:44;1.17;;;0.70;;
16839;SDS011;8536;52.150;11.572;2023-02-04T12:27:11;0.57;;;0.43;;
16839;SDS011;8536;52.150;11.572;2023-02-04T12:29:37;1.83;;;0.60;;
16839;SDS011;8536;52.150;11.572;2023-02-04T12:32:04;1.60;;;0.70;;
16839;SDS011;8536;52.150;11.572;2023-02-04T12:34:30;0.70;;;0.50;;
16839;SDS011;8536;52.150;11.572;2023-02-04T12:36:57;1.47;;;0.80;;
16839;SDS011;8536;52.150;11.572;2023-02-04T12:39:23;2.63;;;0.80;;
16839;SDS011;8536;52.150;11.572;2023-02-04T12:41:50;1.80;;;0.63;;
16839;SDS011;8536;52.150;11.572;2023-02-04T12:44:16;1.07;;;0.50;;
16839;SDS011;8536;52.150;11.572;2023-02-04T12:46:43;1.33;;;0.60;;
16839;SDS011;8536;52.150;11.572;2023-02-04T12:49:09;1.60;;;0.70;;
16839;SDS011;8536;52.150;11.572;2023-02-04T12:51:36;1.27;;;0.63;;
16839;SDS011;8536;52.150;11.572;2023-02-04T12:54:03;1.67;;;0.50;;
16839;SDS011;8536;52.150;11.572;2023-02-04T12:56:29;1.13;;;0.60;;
16839;SDS011;8536;52.150;11.572;2023-02-04T12:58:56;1.80;;;0.70;;
16839;SDS011;8536;52.150;11.572;2023-02-04T13:01:22;2.03;;;0.70;;
16839;SDS011;8536;52.150;11.572;2023-02-04T13:03:49;0.83;;;0.40;;
16839;SDS011;8536;52.150;11.572;2023-02-04T13:06:15;1.53;;;0.80;;
16839;SDS011;8536;52.150;11.572;2023-02-04T13:08:42;1.70;;;0.53;;
16839;SDS011;8536;52.150;11.572;2023-02-04T13:11:08;1.70;;;0.53;;
16839;SDS011;8536;52.150;11.572;2023-02-04T13:13:35;0.73;;;0.53;;
16839;SDS011;8536;52.150;11.572;2023-02-04T13:16:01;0.43;;;0.30;;
16839;SDS011;8536;52.150;11.572;2023-02-04T13:18:28;1.40;;;0.50;;
16839;SDS011;8536;52.150;11.572;2023-02-04T13:20:55;1.47;;;0.70;;
16839;SDS011;8536;52.150;11.572;2023-02-04T13:23:21;2.40;;;0.90;;
16839;SDS011;8536;52.150;11.572;2023-02-04T13:25:48;1.07;;;0.70;;
16839;SDS011;8536;52.150;11.572;2023-02-04T13:28:14;1.73;;;0.63;;
16839;SDS011;8536;52.150;11.572;2023-02-04T13:30:41;0.60;;;0.50;;
16839;SDS011;8536;52.150;11.572;2023-02-04T13:33:07;3.60;;;0.97;;
16839;SDS011;8536;52.150;11.572;2023-02-04T13:35:34;1.47;;;0.87;;
16839;SDS011;8536;52.150;11.572;2023-02-04T13:38:01;1.60;;;0.80;;
16839;SDS011;8536;52.150;11.572;2023-02-04T13:40:27;1.83;;;0.80;;
16839;SDS011;8536;52.150;11.572;2023-02-04T13:42:53;1.07;;;0.53;;
16839;SDS011;8536;52.150;11.572;2023-02-04T13:45:20;0.70;;;0.50;;
16839;SDS011;8536;52.150;11.572;2023-02-04T13:47:47;0.50;;;0.50;;
16839;SDS011;8536;52.150;11.572;2023-02-04T13:50:14;1.97;;;0.50;;
16839;SDS011;8536;52.150;11.572;2023-02-04T13:52:41;0.93;;;0.70;;
16839;SDS011;8536;52.150;11.572;2023-02-04T13:55:08;1.03;;;0.60;;
16839;SDS011;8536;52.150;11.572;2023-02-04T13:57:34;1.23;;;0.60;;
16839;SDS011;8536;52.150;11.572;2023-02-04T14:00:03;0.63;;;0.40;;
16839;SDS011;8536;52.150;11.572;2023-02-04T14:02:30;1.13;;;0.80;;
16839;SDS011;8536;52.150;11.572;2023-02-04T14:04:56;1.37;;;0.60;;
16839;SDS011;8536;52.150;11.572;2023-02-04T14:07:23;2.27;;;0.67;;
16839;SDS011;8536;52.150;11.572;2023-02-04T14:09:50;2.23;;;0.70;;
16839;SDS011;8536;52.150;11.572;2023-02-04T14:12:16;1.63;;;0.67;;
16839;SDS011;8536;52.150;11.572;2023-02-04T14:14:43;2.43;;;0.50;;
16839;SDS011;8536;52.150;11.572;2023-02-04T14:17:09;2.73;;;0.53;;
16839;SDS011;8536;52.150;11.572;2023-02-04T14:19:36;1.07;;;0.47;;
16839;SDS011;8536;52.150;11.572;2023-02-04T14:22:02;1.43;;;0.63;;
16839;SDS011;8536;52.150;11.572;2023-02-04T14:24:29;1.60;;;0.80;;
16839;SDS011;8536;52.150;11.572;2023-02-04T14:26:55;1.07;;;0.70;;
16839;SDS011;8536;52.150;11.572;2023-02-04T14:29:22;1.67;;;0.60;;
16839;SDS011;8536;52.150;11.572;2023-02-04T14:31:48;0.70;;;0.57;;
16839;SDS011;8536;52.150;11.572;2023-02-04T14:34:15;1.00;;;0.53;;
16839;SDS011;8536;52.150;11.572;2023-02-04T14:36:41;1.67;;;0.80;;
16839;SDS011;8536;52.150;11.572;2023-02-04T14:39:08;1.23;;;0.50;;
16839;SDS011;8536;52.150;11.572;2023-02-04T14:41:34;1.10;;;0.47;;
16839;SDS011;8536;52.150;11.572;2023-02-04T14:44:01;1.40;;;0.50;;
16839;SDS011;8536;52.150;11.572;2023-02-04T14:46:27;0.90;;;0.53;;
16839;SDS011;8536;52.150;11.572;2023-02-04T14:48:54;1.03;;;0.50;;
16839;SDS011;8536;52.150;11.572;2023-02-04T14:51:20;0.90;;;0.70;;
16839;SDS011;8536;52.150;11.572;2023-02-04T14:53:47;1.23;;;0.90;;
16839;SDS011;8536;52.150;11.572;2023-02-04T14:56:14;1.63;;;1.30;;
16839;SDS011;8536;52.150;11.572;2023-02-04T14:58:41;0.80;;;0.50;;
16839;SDS011;8536;52.150;11.572;2023-02-04T15:01:07;2.70;;;0.90;;
16839;SDS011;8536;52.150;11.572;2023-02-04T15:03:34;3.10;;;0.70;;
16839;SDS011;8536;52.150;11.572;2023-02-04T15:06:00;1.13;;;0.67;;